createdAt,value
2019-02-25T00:05:35.672Z,54.40
2019-02-25T00:20:39.474Z,55.70
2019-02-25T00:35:42.938Z,56.60
2019-02-25T00:50:46.571Z,56.20
2019-02-25T01:05:50.115Z,55.70
2019-02-25T01:20:53.633Z,54.90
2019-02-25T01:35:57.184Z,54.80
2019-02-25T01:51:00.922Z,54.60
2019-02-25T02:06:04.538Z,54.90
2019-02-25T02:21:08.228Z,54.70
2019-02-25T02:36:11.911Z,54.60
2019-02-25T02:51:15.522Z,54.00
2019-02-25T03:06:19.262Z,54.10
2019-02-25T03:21:22.809Z,52.50
2019-02-25T03:36:26.329Z,52.90
2019-02-25T03:51:30.021Z,53.30
2019-02-25T04:06:33.787Z,52.70
2019-02-25T04:21:37.570Z,52.50
2019-02-25T04:36:41.107Z,52.80
2019-02-25T04:51:44.580Z,52.50
2019-02-25T05:06:48.148Z,52.20
2019-02-25T05:21:51.624Z,52.80
2019-02-25T05:36:55.236Z,53.30
2019-02-25T05:51:58.698Z,53.80
2019-02-25T06:07:02.365Z,53.70
2019-02-25T06:22:05.965Z,53.70
2019-02-25T06:37:09.562Z,54.10
2019-02-25T06:52:16.211Z,54.10
2019-02-25T07:07:22.272Z,53.60
2019-02-25T07:22:30.455Z,52.60
2019-02-25T07:37:51.832Z,51.70
2019-02-25T07:53:00.199Z,49.00
2019-02-25T08:08:05.315Z,45.20
2019-02-25T08:23:19.069Z,43.70
2019-02-25T08:38:36.249Z,41.60
2019-02-25T08:53:40.046Z,40.30
2019-02-25T09:08:43.811Z,39.90
2019-02-25T09:23:47.275Z,39.10
2019-02-25T09:38:50.703Z,39.50
2019-02-25T09:53:54.197Z,39.90
2019-02-25T10:08:57.624Z,41.40
2019-02-25T10:24:01.169Z,42.30
2019-02-25T10:39:05.810Z,41.20
2019-02-25T10:54:09.300Z,42.50
2019-02-25T11:09:15.868Z,42.50
2019-02-25T11:24:21.137Z,42.00
2019-02-25T11:39:25.292Z,41.60
2019-02-25T11:54:30.014Z,41.90
2019-02-25T12:09:33.595Z,41.30
2019-02-25T12:24:37.208Z,42.20
2019-02-25T12:39:40.688Z,41.70
2019-02-25T12:54:44.184Z,42.30
2019-02-25T13:09:47.752Z,43.80
2019-02-25T13:24:51.441Z,43.10
2019-02-25T13:39:55.131Z,42.90
2019-02-25T13:54:58.682Z,42.60
2019-02-25T14:10:02.244Z,43.00
2019-02-25T14:25:08.445Z,43.60
2019-02-25T14:40:19.162Z,44.00
2019-02-25T14:55:22.981Z,43.90
2019-02-25T15:10:29.402Z,44.70
2019-02-25T15:25:33.965Z,45.10
2019-02-25T15:40:37.067Z,46.00
2019-02-25T15:55:40.904Z,46.40
2019-02-25T16:10:44.694Z,47.60
2019-02-25T16:25:50.351Z,47.90
2019-02-25T16:40:56.646Z,49.20
2019-02-25T16:55:58.743Z,49.60
2019-02-25T17:11:02.427Z,50.90
2019-02-25T17:26:07.822Z,51.80
2019-02-25T17:41:13.167Z,54.50
2019-02-25T17:56:18.146Z,55.60
2019-02-25T18:11:22.844Z,56.30
2019-02-25T18:26:28.565Z,57.10
2019-02-25T18:41:34.277Z,58.20
2019-02-25T18:56:38.554Z,59.70
2019-02-25T19:11:45.027Z,59.90
2019-02-25T19:26:49.045Z,60.50
2019-02-25T19:41:53.911Z,61.80
2019-02-25T19:56:58.055Z,62.80
2019-02-25T20:12:01.967Z,63.30
2019-02-25T20:27:06.827Z,64.60
2019-02-25T20:42:10.539Z,65.40
2019-02-25T20:57:14.666Z,65.90
2019-02-25T21:12:20.189Z,66.50
2019-02-25T21:27:28.334Z,65.90
2019-02-25T21:42:29.278Z,65.90
2019-02-25T21:57:33.466Z,65.30
2019-02-25T22:12:39.975Z,65.80
2019-02-25T22:27:43.862Z,65.80
2019-02-25T22:42:51.787Z,67.90
2019-02-25T22:57:54.123Z,68.60
2019-02-25T23:12:57.828Z,68.50
2019-02-25T23:28:02.282Z,68.90
2019-02-25T23:43:07.503Z,69.40
2019-02-25T23:58:12.597Z,69.70
